Bishopbriggs, United Kingdom
Current Conditions -  °F | °C
As of 12:20 PM on Monday 24 Nov 2014 (Local Time) from EGPF Reporting Station
Few Clouds Few Clouds  
Wind Chill: 44°   Ceiling: Unl
Heat Index: 48°   Visibility: 6mi
Dew Point: 43°   Wind: 10mph
Humidity: 82%   Direction: 210°SSW
Pressure: 30.21"   Gusts: NA
Location:  55.91°N, 4.22°W
Report Text: EGPF 241220Z 21009KT 9999 FEW040 09/06 Q1023
Loading
Personal Weather Stations






























Interactive Weather Map New forecast layout! Learn more

10-Day Weather Forecast

Advertisements
Track Severe Weather on mobile